Terminal Aerodrome Forecast
Issued by NWS Charleston, WV

Current Version | Previous Version | Text Only | Print | Product List | Glossary Off
Versions: 1 2 3 4 5 6 7 8 9 10 11 12 13 14 15 16 17 18

437
FTUS41 KRLX 090907 AAA
TAFHTS
TAF AMD
KHTS 090907Z 0909/1006 27008KT P6SM -SHSN SCT015 OVC040
     FM091700 26010G17KT P6SM OVC035
     FM092100 26010G15KT P6SM OVC025=

USA.gov is the U.S. government's official web portal to all federal, state and local government web resources and services.